sensor_id;sensor_type;location;lat;lon;timestamp;pressure;altitude;pressure_sealevel;temperature;humidity
13029;BME280;6581;42.662;23.402;2022-08-19T00:01:28;95063.88;;;22.70;63.16
13029;BME280;6581;42.662;23.402;2022-08-19T00:03:56;95059.25;;;22.71;63.35
13029;BME280;6581;42.662;23.402;2022-08-19T00:06:23;95059.66;;;22.69;62.98
13029;BME280;6581;42.662;23.402;2022-08-19T00:08:51;95057.50;;;22.64;63.11
13029;BME280;6581;42.662;23.402;2022-08-19T00:11:18;95072.09;;;22.67;63.05
13029;BME280;6581;42.662;23.402;2022-08-19T00:13:46;95068.31;;;22.64;62.93
13029;BME280;6581;42.662;23.402;2022-08-19T00:16:18;95068.00;;;22.62;63.43
13029;BME280;6581;42.662;23.402;2022-08-19T00:18:46;95068.91;;;22.59;63.96
13029;BME280;6581;42.662;23.402;2022-08-19T00:21:14;95068.91;;;22.59;64.05
13029;BME280;6581;42.662;23.402;2022-08-19T00:23:41;95081.19;;;22.60;64.13
13029;BME280;6581;42.662;23.402;2022-08-19T00:26:10;95082.63;;;22.52;65.13
13029;BME280;6581;42.662;23.402;2022-08-19T00:28:37;95078.88;;;22.49;64.38
13029;BME280;6581;42.662;23.402;2022-08-19T00:31:07;95086.72;;;22.57;64.53
13029;BME280;6581;42.662;23.402;2022-08-19T00:33:36;95076.94;;;22.50;65.21
13029;BME280;6581;42.662;23.402;2022-08-19T00:36:06;95079.72;;;22.46;65.80
13029;BME280;6581;42.662;23.402;2022-08-19T00:38:35;95075.66;;;22.42;66.07
13029;BME280;6581;42.662;23.402;2022-08-19T00:41:02;95074.91;;;22.41;66.38
13029;BME280;6581;42.662;23.402;2022-08-19T00:43:31;95074.41;;;22.34;67.49
13029;BME280;6581;42.662;23.402;2022-08-19T00:45:58;95071.41;;;22.32;68.09
13029;BME280;6581;42.662;23.402;2022-08-19T00:48:27;95069.88;;;22.31;68.29
13029;BME280;6581;42.662;23.402;2022-08-19T00:50:56;95068.81;;;22.28;68.61
13029;BME280;6581;42.662;23.402;2022-08-19T00:53:26;95070.88;;;22.24;67.82
13029;BME280;6581;42.662;23.402;2022-08-19T00:55:56;95078.66;;;22.22;67.71
13029;BME280;6581;42.662;23.402;2022-08-19T00:58:29;95073.81;;;22.17;67.34
13029;BME280;6581;42.662;23.402;2022-08-19T01:00:57;95073.28;;;22.09;66.84
13029;BME280;6581;42.662;23.402;2022-08-19T01:03:49;95072.91;;;21.98;67.58
13029;BME280;6581;42.662;23.402;2022-08-19T01:06:18;95077.66;;;21.94;67.26
13029;BME280;6581;42.662;23.402;2022-08-19T01:08:46;95079.47;;;21.97;66.80
13029;BME280;6581;42.662;23.402;2022-08-19T01:11:13;95073.22;;;22.00;66.38
13029;BME280;6581;42.662;23.402;2022-08-19T01:13:41;95073.44;;;21.93;66.81
13029;BME280;6581;42.662;23.402;2022-08-19T01:16:12;95077.31;;;21.92;66.70
13029;BME280;6581;42.662;23.402;2022-08-19T01:18:42;95078.72;;;21.84;67.81
13029;BME280;6581;42.662;23.402;2022-08-19T01:21:13;95074.66;;;21.80;68.41
13029;BME280;6581;42.662;23.402;2022-08-19T01:23:44;95078.00;;;21.71;69.59
13029;BME280;6581;42.662;23.402;2022-08-19T01:26:14;95071.22;;;21.66;70.29
13029;BME280;6581;42.662;23.402;2022-08-19T01:28:43;95071.97;;;21.54;71.19
13029;BME280;6581;42.662;23.402;2022-08-19T01:31:14;95075.88;;;21.41;72.21
13029;BME280;6581;42.662;23.402;2022-08-19T01:33:42;95075.44;;;21.30;71.90
13029;BME280;6581;42.662;23.402;2022-08-19T01:36:12;95073.59;;;21.14;72.57
13029;BME280;6581;42.662;23.402;2022-08-19T01:38:41;95063.03;;;21.07;72.22
13029;BME280;6581;42.662;23.402;2022-08-19T01:41:11;95069.16;;;21.07;71.90
13029;BME280;6581;42.662;23.402;2022-08-19T01:43:40;95068.53;;;21.03;72.78
13029;BME280;6581;42.662;23.402;2022-08-19T01:46:07;95065.50;;;21.01;73.16
13029;BME280;6581;42.662;23.402;2022-08-19T01:48:35;95068.41;;;20.94;73.64
13029;BME280;6581;42.662;23.402;2022-08-19T01:51:04;95065.38;;;20.92;73.47
13029;BME280;6581;42.662;23.402;2022-08-19T01:53:32;95061.81;;;20.95;73.57
13029;BME280;6581;42.662;23.402;2022-08-19T01:55:59;95071.50;;;20.93;74.13
13029;BME280;6581;42.662;23.402;2022-08-19T01:58:30;95071.38;;;20.84;74.19
13029;BME280;6581;42.662;23.402;2022-08-19T02:00:59;95077.44;;;20.88;74.37
13029;BME280;6581;42.662;23.402;2022-08-19T02:03:26;95076.66;;;20.87;74.69
13029;BME280;6581;42.662;23.402;2022-08-19T02:05:55;95080.66;;;20.83;74.34
13029;BME280;6581;42.662;23.402;2022-08-19T02:08:23;95079.22;;;20.78;74.40
13029;BME280;6581;42.662;23.402;2022-08-19T02:11:18;95072.97;;;20.81;74.72
13029;BME280;6581;42.662;23.402;2022-08-19T02:13:47;95073.97;;;20.74;75.06
13029;BME280;6581;42.662;23.402;2022-08-19T02:16:16;95076.22;;;20.76;75.22
13029;BME280;6581;42.662;23.402;2022-08-19T02:18:44;95070.94;;;20.72;74.93
13029;BME280;6581;42.662;23.402;2022-08-19T02:21:12;95077.16;;;20.69;74.60
13029;BME280;6581;42.662;23.402;2022-08-19T02:23:40;95077.59;;;20.68;74.32
13029;BME280;6581;42.662;23.402;2022-08-19T02:26:07;95074.59;;;20.66;75.07
13029;BME280;6581;42.662;23.402;2022-08-19T02:28:34;95082.22;;;20.67;75.32
13029;BME280;6581;42.662;23.402;2022-08-19T02:31:07;95085.66;;;20.68;76.48
13029;BME280;6581;42.662;23.402;2022-08-19T02:33:35;95084.50;;;20.69;76.75
13029;BME280;6581;42.662;23.402;2022-08-19T02:36:03;95084.81;;;20.71;76.81
13029;BME280;6581;42.662;23.402;2022-08-19T02:38:31;95081.56;;;20.63;77.81
13029;BME280;6581;42.662;23.402;2022-08-19T02:41:00;95082.72;;;20.62;77.89
13029;BME280;6581;42.662;23.402;2022-08-19T02:43:30;95085.13;;;20.60;77.93
13029;BME280;6581;42.662;23.402;2022-08-19T02:45:58;95088.56;;;20.61;77.93
13029;BME280;6581;42.662;23.402;2022-08-19T02:48:27;95085.53;;;20.59;76.74
13029;BME280;6581;42.662;23.402;2022-08-19T02:50:55;95090.59;;;20.57;76.52
13029;BME280;6581;42.662;23.402;2022-08-19T02:53:24;95094.13;;;20.54;76.19
13029;BME280;6581;42.662;23.402;2022-08-19T02:55:53;95087.56;;;20.55;74.91
13029;BME280;6581;42.662;23.402;2022-08-19T02:58:45;95100.59;;;20.56;75.76
13029;BME280;6581;42.662;23.402;2022-08-19T03:01:20;95095.53;;;20.58;76.10
13029;BME280;6581;42.662;23.402;2022-08-19T03:03:49;95102.44;;;20.59;76.41
13029;BME280;6581;42.662;23.402;2022-08-19T03:06:17;95087.91;;;20.57;76.45
13029;BME280;6581;42.662;23.402;2022-08-19T03:08:46;95101.03;;;20.55;76.32
13029;BME280;6581;42.662;23.402;2022-08-19T03:11:17;95096.91;;;20.50;76.13
13029;BME280;6581;42.662;23.402;2022-08-19T03:13:44;95091.88;;;20.52;76.22
13029;BME280;6581;42.662;23.402;2022-08-19T03:16:12;95090.97;;;20.43;76.40
13029;BME280;6581;42.662;23.402;2022-08-19T03:18:40;95092.50;;;20.44;76.15
13029;BME280;6581;42.662;23.402;2022-08-19T03:21:08;95090.63;;;20.41;75.53
13029;BME280;6581;42.662;23.402;2022-08-19T03:23:36;95078.69;;;20.42;75.71
13029;BME280;6581;42.662;23.402;2022-08-19T03:26:05;95078.91;;;20.34;76.27
13029;BME280;6581;42.662;23.402;2022-08-19T03:28:33;95085.19;;;20.28;76.48
13029;BME280;6581;42.662;23.402;2022-08-19T03:31:02;95080.66;;;20.25;76.89
13029;BME280;6581;42.662;23.402;2022-08-19T03:33:31;95083.88;;;20.20;78.17
13029;BME280;6581;42.662;23.402;2022-08-19T03:36:12;95089.16;;;20.23;78.76
13029;BME280;6581;42.662;23.402;2022-08-19T03:38:43;95088.50;;;20.19;79.03
13029;BME280;6581;42.662;23.402;2022-08-19T03:41:13;95086.91;;;20.06;79.38
13029;BME280;6581;42.662;23.402;2022-08-19T03:43:42;95089.69;;;20.02;79.38
13029;BME280;6581;42.662;23.402;2022-08-19T03:46:11;95089.59;;;19.89;79.50
13029;BME280;6581;42.662;23.402;2022-08-19T03:48:40;95099.84;;;19.95;79.92
13029;BME280;6581;42.662;23.402;2022-08-19T03:51:16;95097.94;;;19.95;79.95
13029;BME280;6581;42.662;23.402;2022-08-19T03:53:43;95100.28;;;19.93;80.28
13029;BME280;6581;42.662;23.402;2022-08-19T03:56:10;95107.50;;;19.96;80.42
13029;BME280;6581;42.662;23.402;2022-08-19T03:58:39;95110.88;;;20.00;79.93
13029;BME280;6581;42.662;23.402;2022-08-19T04:01:08;95117.50;;;19.96;79.79
13029;BME280;6581;42.662;23.402;2022-08-19T04:03:35;95110.00;;;20.03;79.68
13029;BME280;6581;42.662;23.402;2022-08-19T04:06:11;95109.75;;;20.14;79.32
13029;BME280;6581;42.662;23.402;2022-08-19T04:08:39;95121.06;;;20.21;79.63
13029;BME280;6581;42.662;23.402;2022-08-19T04:11:07;95129.16;;;20.21;79.95
13029;BME280;6581;42.662;23.402;2022-08-19T04:13:35;95129.91;;;20.38;78.95
13029;BME280;6581;42.662;23.402;2022-08-19T04:16:02;95124.28;;;20.32;80.19
13029;BME280;6581;42.662;23.402;2022-08-19T04:18:30;95127.31;;;20.34;79.77
13029;BME280;6581;42.662;23.402;2022-08-19T04:20:58;95128.41;;;20.37;78.36
13029;BME280;6581;42.662;23.402;2022-08-19T04:23:28;95136.06;;;20.39;77.90
13029;BME280;6581;42.662;23.402;2022-08-19T04:25:55;95134.13;;;20.39;78.10
13029;BME280;6581;42.662;23.402;2022-08-19T04:28:25;95142.94;;;20.40;77.74
13029;BME280;6581;42.662;23.402;2022-08-19T04:30:54;95128.34;;;20.53;79.96
13029;BME280;6581;42.662;23.402;2022-08-19T04:33:23;95142.16;;;20.55;79.43
13029;BME280;6581;42.662;23.402;2022-08-19T04:35:52;95146.09;;;20.51;78.99
13029;BME280;6581;42.662;23.402;2022-08-19T04:38:21;95142.16;;;20.55;78.15
13029;BME280;6581;42.662;23.402;2022-08-19T04:40:51;95142.66;;;20.50;77.97
13029;BME280;6581;42.662;23.402;2022-08-19T04:43:38;95134.81;;;20.56;77.07
13029;BME280;6581;42.662;23.402;2022-08-19T04:46:05;95132.31;;;20.49;77.73
13029;BME280;6581;42.662;23.402;2022-08-19T04:48:33;95139.03;;;20.57;77.20
13029;BME280;6581;42.662;23.402;2022-08-19T04:51:05;95123.31;;;20.55;77.37
13029;BME280;6581;42.662;23.402;2022-08-19T04:53:34;95123.44;;;20.64;77.30
13029;BME280;6581;42.662;23.402;2022-08-19T04:56:07;95135.53;;;20.72;76.49
13029;BME280;6581;42.662;23.402;2022-08-19T04:58:39;95132.00;;;20.75;76.60
13029;BME280;6581;42.662;23.402;2022-08-19T05:01:09;95133.31;;;20.84;76.86
13029;BME280;6581;42.662;23.402;2022-08-19T05:03:38;95136.63;;;20.75;75.99
13029;BME280;6581;42.662;23.402;2022-08-19T05:06:07;95149.03;;;20.85;75.72
13029;BME280;6581;42.662;23.402;2022-08-19T05:08:36;95143.03;;;20.94;75.79
13029;BME280;6581;42.662;23.402;2022-08-19T05:11:10;95136.38;;;20.98;76.50
13029;BME280;6581;42.662;23.402;2022-08-19T05:13:38;95142.41;;;21.02;76.22
13029;BME280;6581;42.662;23.402;2022-08-19T05:16:06;95142.69;;;21.20;75.95
13029;BME280;6581;42.662;23.402;2022-08-19T05:18:33;95140.88;;;21.30;75.85
13029;BME280;6581;42.662;23.402;2022-08-19T05:21:19;95138.28;;;21.39;76.09
13029;BME280;6581;42.662;23.402;2022-08-19T05:24:06;95136.34;;;21.52;75.92
13029;BME280;6581;42.662;23.402;2022-08-19T05:26:36;95145.94;;;21.66;74.78
13029;BME280;6581;42.662;23.402;2022-08-19T05:29:04;95143.00;;;21.73;74.50
13029;BME280;6581;42.662;23.402;2022-08-19T05:31:33;95136.75;;;21.89;73.25
13029;BME280;6581;42.662;23.402;2022-08-19T05:34:01;95141.50;;;21.97;73.36
13029;BME280;6581;42.662;23.402;2022-08-19T05:36:33;95147.97;;;22.13;72.49
13029;BME280;6581;42.662;23.402;2022-08-19T05:39:03;95143.50;;;22.19;72.37
13029;BME280;6581;42.662;23.402;2022-08-19T05:41:30;95147.25;;;22.34;71.32
13029;BME280;6581;42.662;23.402;2022-08-19T05:44:24;95141.06;;;22.46;72.53
13029;BME280;6581;42.662;23.402;2022-08-19T05:46:52;95141.25;;;22.51;71.53
13029;BME280;6581;42.662;23.402;2022-08-19T05:49:21;95138.75;;;22.57;71.05
13029;BME280;6581;42.662;23.402;2022-08-19T05:51:49;95139.59;;;22.67;71.13
13029;BME280;6581;42.662;23.402;2022-08-19T05:54:18;95139.47;;;22.70;70.23
13029;BME280;6581;42.662;23.402;2022-08-19T05:56:46;95140.19;;;22.83;69.53
13029;BME280;6581;42.662;23.402;2022-08-19T05:59:15;95146.09;;;22.91;69.85
13029;BME280;6581;42.662;23.402;2022-08-19T06:01:46;95137.72;;;22.98;68.63
13029;BME280;6581;42.662;23.402;2022-08-19T06:04:17;95140.06;;;23.09;68.97
13029;BME280;6581;42.662;23.402;2022-08-19T06:06:50;95140.97;;;23.15;68.59
13029;BME280;6581;42.662;23.402;2022-08-19T06:09:18;95144.31;;;23.19;69.63
13029;BME280;6581;42.662;23.402;2022-08-19T06:11:48;95144.47;;;23.24;68.51
13029;BME280;6581;42.662;23.402;2022-08-19T06:14:21;95150.78;;;23.21;68.46
13029;BME280;6581;42.662;23.402;2022-08-19T06:16:51;95140.41;;;23.20;67.78
13029;BME280;6581;42.662;23.402;2022-08-19T06:19:21;95146.75;;;23.26;66.83
13029;BME280;6581;42.662;23.402;2022-08-19T06:21:51;95153.34;;;23.25;66.29
13029;BME280;6581;42.662;23.402;2022-08-19T06:24:20;95161.50;;;23.34;66.00
13029;BME280;6581;42.662;23.402;2022-08-19T06:26:50;95159.25;;;23.32;65.79
13029;BME280;6581;42.662;23.402;2022-08-19T06:29:21;95154.31;;;23.40;65.73
13029;BME280;6581;42.662;23.402;2022-08-19T06:31:51;95151.50;;;23.43;65.07
13029;BME280;6581;42.662;23.402;2022-08-19T06:34:19;95155.38;;;23.42;65.75
13029;BME280;6581;42.662;23.402;2022-08-19T06:36:49;95151.75;;;23.58;65.63
13029;BME280;6581;42.662;23.402;2022-08-19T06:39:19;95158.69;;;23.68;63.70
13029;BME280;6581;42.662;23.402;2022-08-19T06:41:48;95152.84;;;23.79;63.10
13029;BME280;6581;42.662;23.402;2022-08-19T06:44:17;95146.13;;;23.93;63.07
13029;BME280;6581;42.662;23.402;2022-08-19T06:46:44;95147.06;;;23.99;62.67
13029;BME280;6581;42.662;23.402;2022-08-19T06:49:14;95153.06;;;24.03;61.66
13029;BME280;6581;42.662;23.402;2022-08-19T06:51:42;95153.41;;;24.14;62.21
13029;BME280;6581;42.662;23.402;2022-08-19T06:54:10;95147.75;;;24.30;61.13
13029;BME280;6581;42.662;23.402;2022-08-19T06:56:38;95152.88;;;24.37;59.93
13029;BME280;6581;42.662;23.402;2022-08-19T06:59:07;95152.75;;;24.50;59.86
13029;BME280;6581;42.662;23.402;2022-08-19T07:01:35;95160.09;;;24.58;58.70
13029;BME280;6581;42.662;23.402;2022-08-19T07:04:04;95157.84;;;24.66;58.30
13029;BME280;6581;42.662;23.402;2022-08-19T07:06:33;95167.03;;;24.68;59.02
13029;BME280;6581;42.662;23.402;2022-08-19T07:09:00;95165.53;;;24.77;58.02
13029;BME280;6581;42.662;23.402;2022-08-19T07:11:27;95159.97;;;24.89;58.07
13029;BME280;6581;42.662;23.402;2022-08-19T07:13:55;95155.75;;;25.06;57.31
13029;BME280;6581;42.662;23.402;2022-08-19T07:16:22;95162.63;;;25.26;56.56
13029;BME280;6581;42.662;23.402;2022-08-19T07:18:50;95162.47;;;25.38;55.41
13029;BME280;6581;42.662;23.402;2022-08-19T07:21:21;95163.63;;;25.46;55.05
13029;BME280;6581;42.662;23.402;2022-08-19T07:23:51;95161.47;;;25.69;54.82
13029;BME280;6581;42.662;23.402;2022-08-19T07:26:24;95159.66;;;26.08;53.29
13029;BME280;6581;42.662;23.402;2022-08-19T07:28:52;95155.91;;;26.29;52.15
13029;BME280;6581;42.662;23.402;2022-08-19T07:31:22;95164.44;;;26.60;51.38
13029;BME280;6581;42.662;23.402;2022-08-19T07:33:51;95164.19;;;26.97;49.97
13029;BME280;6581;42.662;23.402;2022-08-19T07:36:23;95157.38;;;27.30;48.34
13029;BME280;6581;42.662;23.402;2022-08-19T07:38:52;95157.28;;;28.79;44.83
13029;BME280;6581;42.662;23.402;2022-08-19T07:41:24;95150.47;;;30.46;40.22
13029;BME280;6581;42.662;23.402;2022-08-19T07:43:52;95156.94;;;32.02;36.40
13029;BME280;6581;42.662;23.402;2022-08-19T07:46:22;95156.25;;;33.58;34.34
13029;BME280;6581;42.662;23.402;2022-08-19T07:48:51;95158.19;;;34.90;31.13
13029;BME280;6581;42.662;23.402;2022-08-19T07:51:21;95154.91;;;35.10;30.49
13029;BME280;6581;42.662;23.402;2022-08-19T07:53:50;95166.72;;;35.43;29.89
13029;BME280;6581;42.662;23.402;2022-08-19T07:56:19;95166.34;;;35.52;29.20
13029;BME280;6581;42.662;23.402;2022-08-19T07:58:49;95166.91;;;35.64;29.43
13029;BME280;6581;42.662;23.402;2022-08-19T08:01:19;95163.78;;;36.18;28.47
13029;BME280;6581;42.662;23.402;2022-08-19T08:03:48;95164.47;;;35.60;28.81
13029;BME280;6581;42.662;23.402;2022-08-19T08:06:33;95169.53;;;35.88;28.18
13029;BME280;6581;42.662;23.402;2022-08-19T08:09:22;95162.19;;;36.35;27.71
13029;BME280;6581;42.662;23.402;2022-08-19T08:11:53;95159.72;;;36.58;27.79
13029;BME280;6581;42.662;23.402;2022-08-19T08:14:24;95160.28;;;36.17;27.99
13029;BME280;6581;42.662;23.402;2022-08-19T08:16:52;95159.00;;;35.04;29.38
13029;BME280;6581;42.662;23.402;2022-08-19T08:19:23;95148.69;;;33.70;31.41
13029;BME280;6581;42.662;23.402;2022-08-19T08:21:52;95146.47;;;32.86;32.37
13029;BME280;6581;42.662;23.402;2022-08-19T08:24:20;95148.91;;;32.27;33.84
13029;BME280;6581;42.662;23.402;2022-08-19T08:26:48;95145.00;;;31.72;34.75
13029;BME280;6581;42.662;23.402;2022-08-19T08:29:17;95145.25;;;31.30;36.34
13029;BME280;6581;42.662;23.402;2022-08-19T08:31:46;95140.88;;;30.73;37.53
13029;BME280;6581;42.662;23.402;2022-08-19T08:34:14;95143.63;;;30.78;37.71
13029;BME280;6581;42.662;23.402;2022-08-19T08:36:43;95139.06;;;30.59;37.95
13029;BME280;6581;42.662;23.402;2022-08-19T08:39:14;95139.03;;;30.53;38.09
13029;BME280;6581;42.662;23.402;2022-08-19T08:42:08;95137.75;;;30.43;38.34
13029;BME280;6581;42.662;23.402;2022-08-19T08:44:46;95130.75;;;30.36;38.08
13029;BME280;6581;42.662;23.402;2022-08-19T08:47:18;95137.50;;;30.41;37.98
13029;BME280;6581;42.662;23.402;2022-08-19T08:49:50;95127.78;;;30.40;39.48
13029;BME280;6581;42.662;23.402;2022-08-19T08:52:22;95128.63;;;30.57;39.77
13029;BME280;6581;42.662;23.402;2022-08-19T08:54:54;95124.41;;;30.62;38.42
13029;BME280;6581;42.662;23.402;2022-08-19T08:57:52;95117.47;;;30.61;37.96
13029;BME280;6581;42.662;23.402;2022-08-19T09:00:32;95122.22;;;30.66;38.38
13029;BME280;6581;42.662;23.402;2022-08-19T09:03:00;95110.78;;;30.67;35.47
13029;BME280;6581;42.662;23.402;2022-08-19T09:05:37;95110.56;;;30.82;35.69
13029;BME280;6581;42.662;23.402;2022-08-19T09:08:18;95112.03;;;30.72;35.78
13029;BME280;6581;42.662;23.402;2022-08-19T09:10:53;95113.56;;;30.90;36.21
13029;BME280;6581;42.662;23.402;2022-08-19T09:13:25;95103.69;;;31.14;35.98
13029;BME280;6581;42.662;23.402;2022-08-19T09:16:03;95104.44;;;31.32;35.37
13029;BME280;6581;42.662;23.402;2022-08-19T09:18:39;95104.69;;;31.34;37.23
13029;BME280;6581;42.662;23.402;2022-08-19T09:21:08;95092.50;;;31.51;33.59
13029;BME280;6581;42.662;23.402;2022-08-19T09:23:36;95096.72;;;31.63;31.84
13029;BME280;6581;42.662;23.402;2022-08-19T09:26:07;95096.72;;;31.58;33.33
13029;BME280;6581;42.662;23.402;2022-08-19T09:28:36;95090.22;;;31.78;33.06
13029;BME280;6581;42.662;23.402;2022-08-19T09:31:05;95088.50;;;31.75;31.20
13029;BME280;6581;42.662;23.402;2022-08-19T09:33:57;95089.69;;;31.90;30.85
13029;BME280;6581;42.662;23.402;2022-08-19T09:36:26;95083.94;;;32.05;28.75
13029;BME280;6581;42.662;23.402;2022-08-19T09:38:55;95084.72;;;32.11;28.52
13029;BME280;6581;42.662;23.402;2022-08-19T09:41:24;95083.41;;;32.18;27.73
13029;BME280;6581;42.662;23.402;2022-08-19T09:43:53;95079.91;;;32.28;27.86
13029;BME280;6581;42.662;23.402;2022-08-19T09:46:30;95084.81;;;32.41;27.74
13029;BME280;6581;42.662;23.402;2022-08-19T09:49:26;95081.41;;;32.29;29.98
13029;BME280;6581;42.662;23.402;2022-08-19T09:52:10;95083.03;;;31.75;30.73
13029;BME280;6581;42.662;23.402;2022-08-19T09:55:30;95073.25;;;31.96;31.35
13029;BME280;6581;42.662;23.402;2022-08-19T09:57:59;95073.75;;;32.11;27.78
13029;BME280;6581;42.662;23.402;2022-08-19T10:00:26;95058.75;;;32.18;28.71
13029;BME280;6581;42.662;23.402;2022-08-19T10:02:57;95064.69;;;32.33;28.61
13029;BME280;6581;42.662;23.402;2022-08-19T10:05:25;95062.41;;;32.42;28.73
13029;BME280;6581;42.662;23.402;2022-08-19T10:08:22;95059.84;;;32.50;27.71
13029;BME280;6581;42.662;23.402;2022-08-19T10:11:02;95048.84;;;32.61;29.17
13029;BME280;6581;42.662;23.402;2022-08-19T10:13:32;95038.34;;;32.71;28.52
13029;BME280;6581;42.662;23.402;2022-08-19T10:16:26;95051.75;;;32.80;30.15
13029;BME280;6581;42.662;23.402;2022-08-19T10:18:54;95054.63;;;32.52;29.10
13029;BME280;6581;42.662;23.402;2022-08-19T10:21:24;95054.78;;;32.13;31.42
13029;BME280;6581;42.662;23.402;2022-08-19T10:23:52;95047.97;;;32.36;30.06
13029;BME280;6581;42.662;23.402;2022-08-19T10:26:25;95043.22;;;32.37;31.16
13029;BME280;6581;42.662;23.402;2022-08-19T10:28:53;95038.63;;;32.62;29.21
13029;BME280;6581;42.662;23.402;2022-08-19T10:31:22;95038.94;;;32.47;29.21
13029;BME280;6581;42.662;23.402;2022-08-19T10:33:51;95039.91;;;32.49;27.92
13029;BME280;6581;42.662;23.402;2022-08-19T10:36:29;95031.66;;;32.55;28.64
13029;BME280;6581;42.662;23.402;2022-08-19T10:39:02;95035.19;;;32.50;28.83
13029;BME280;6581;42.662;23.402;2022-08-19T10:41:31;95033.13;;;32.62;28.40
13029;BME280;6581;42.662;23.402;2022-08-19T10:44:02;95028.41;;;32.62;28.07
13029;BME280;6581;42.662;23.402;2022-08-19T10:46:30;95029.56;;;32.78;28.38
13029;BME280;6581;42.662;23.402;2022-08-19T10:48:59;95036.16;;;32.99;27.78
13029;BME280;6581;42.662;23.402;2022-08-19T10:51:29;95031.81;;;33.15;27.38
13029;BME280;6581;42.662;23.402;2022-08-19T10:54:14;95029.31;;;33.17;27.25
13029;BME280;6581;42.662;23.402;2022-08-19T10:56:42;95025.78;;;33.22;27.72
13029;BME280;6581;42.662;23.402;2022-08-19T10:59:20;95017.47;;;33.27;27.66
13029;BME280;6581;42.662;23.402;2022-08-19T11:01:50;95009.81;;;33.20;27.63
13029;BME280;6581;42.662;23.402;2022-08-19T11:04:19;95015.63;;;33.41;27.86
13029;BME280;6581;42.662;23.402;2022-08-19T11:06:48;95013.78;;;33.49;27.42
13029;BME280;6581;42.662;23.402;2022-08-19T11:09:17;95021.44;;;33.56;26.76
13029;BME280;6581;42.662;23.402;2022-08-19T11:11:46;95007.84;;;33.69;27.43
13029;BME280;6581;42.662;23.402;2022-08-19T11:14:16;95014.66;;;33.63;27.08
13029;BME280;6581;42.662;23.402;2022-08-19T11:16:47;95007.38;;;33.65;26.43
13029;BME280;6581;42.662;23.402;2022-08-19T11:19:15;95005.88;;;33.64;27.18
13029;BME280;6581;42.662;23.402;2022-08-19T11:21:47;95008.25;;;33.55;27.01
13029;BME280;6581;42.662;23.402;2022-08-19T11:24:16;95009.88;;;33.39;27.44
13029;BME280;6581;42.662;23.402;2022-08-19T11:26:47;95015.00;;;33.54;27.05
13029;BME280;6581;42.662;23.402;2022-08-19T11:29:17;95008.59;;;33.46;27.01
13029;BME280;6581;42.662;23.402;2022-08-19T11:31:47;94997.25;;;33.55;27.52
13029;BME280;6581;42.662;23.402;2022-08-19T11:34:16;95001.13;;;33.65;27.38
13029;BME280;6581;42.662;23.402;2022-08-19T11:36:47;94999.91;;;33.90;27.05
13029;BME280;6581;42.662;23.402;2022-08-19T11:39:18;94993.16;;;33.91;26.63
13029;BME280;6581;42.662;23.402;2022-08-19T11:41:46;94990.50;;;33.80;26.82
13029;BME280;6581;42.662;23.402;2022-08-19T11:44:13;94994.00;;;33.80;27.42
13029;BME280;6581;42.662;23.402;2022-08-19T11:46:42;94981.63;;;33.93;27.10
13029;BME280;6581;42.662;23.402;2022-08-19T11:49:13;94977.63;;;33.94;26.71
13029;BME280;6581;42.662;23.402;2022-08-19T11:51:41;94972.88;;;33.94;27.45
13029;BME280;6581;42.662;23.402;2022-08-19T11:54:11;94974.94;;;33.88;27.50
13029;BME280;6581;42.662;23.402;2022-08-19T11:56:39;94978.13;;;34.11;27.12
13029;BME280;6581;42.662;23.402;2022-08-19T11:59:07;94980.75;;;34.03;26.63
13029;BME280;6581;42.662;23.402;2022-08-19T12:01:35;94979.53;;;33.80;26.37
13029;BME280;6581;42.662;23.402;2022-08-19T12:04:02;94980.66;;;33.66;26.63
13029;BME280;6581;42.662;23.402;2022-08-19T12:06:31;94973.28;;;33.55;26.70
13029;BME280;6581;42.662;23.402;2022-08-19T12:09:02;94965.22;;;33.63;26.50
13029;BME280;6581;42.662;23.402;2022-08-19T12:11:31;94962.81;;;33.54;27.63
13029;BME280;6581;42.662;23.402;2022-08-19T12:13:59;94967.97;;;33.63;28.20
13029;BME280;6581;42.662;23.402;2022-08-19T12:16:28;94960.28;;;33.56;27.08
13029;BME280;6581;42.662;23.402;2022-08-19T12:19:21;94954.66;;;33.72;27.35
13029;BME280;6581;42.662;23.402;2022-08-19T12:21:49;94954.00;;;33.85;27.04
13029;BME280;6581;42.662;23.402;2022-08-19T12:24:16;94943.09;;;33.98;27.27
13029;BME280;6581;42.662;23.402;2022-08-19T12:26:50;94937.44;;;34.09;26.95
13029;BME280;6581;42.662;23.402;2022-08-19T12:29:17;94937.09;;;34.18;26.89
13029;BME280;6581;42.662;23.402;2022-08-19T12:31:45;94933.44;;;34.29;26.62
13029;BME280;6581;42.662;23.402;2022-08-19T12:34:12;94936.34;;;34.37;26.94
13029;BME280;6581;42.662;23.402;2022-08-19T12:36:39;94932.03;;;34.41;26.39
13029;BME280;6581;42.662;23.402;2022-08-19T12:39:07;94924.22;;;34.45;26.13
13029;BME280;6581;42.662;23.402;2022-08-19T12:41:34;94930.66;;;34.66;26.20
13029;BME280;6581;42.662;23.402;2022-08-19T12:44:04;94929.19;;;34.47;26.17
13029;BME280;6581;42.662;23.402;2022-08-19T12:46:31;94920.09;;;34.52;26.21
13029;BME280;6581;42.662;23.402;2022-08-19T12:48:59;94923.41;;;34.50;26.70
13029;BME280;6581;42.662;23.402;2022-08-19T12:51:27;94920.09;;;34.52;26.39
13029;BME280;6581;42.662;23.402;2022-08-19T12:53:57;94919.41;;;34.14;26.20
13029;BME280;6581;42.662;23.402;2022-08-19T12:56:25;94915.97;;;34.08;26.81
13029;BME280;6581;42.662;23.402;2022-08-19T12:58:53;94912.00;;;34.28;27.02
13029;BME280;6581;42.662;23.402;2022-08-19T13:01:21;94915.31;;;34.20;26.82
13029;BME280;6581;42.662;23.402;2022-08-19T13:03:49;94915.09;;;34.37;26.85
13029;BME280;6581;42.662;23.402;2022-08-19T13:06:20;94909.53;;;34.56;26.42
13029;BME280;6581;42.662;23.402;2022-08-19T13:08:48;94914.72;;;34.46;25.97
13029;BME280;6581;42.662;23.402;2022-08-19T13:11:18;94913.56;;;34.55;27.09
13029;BME280;6581;42.662;23.402;2022-08-19T13:13:47;94909.50;;;34.75;27.69
13029;BME280;6581;42.662;23.402;2022-08-19T13:16:17;94913.34;;;34.85;26.14
13029;BME280;6581;42.662;23.402;2022-08-19T13:19:12;94909.44;;;34.80;25.77